Time;durP1;ratioP1;P1;durP2;ratioP2;P2;SDS_P1;SDS_P2;PMS_P1;PMS_P2;Temp;Humidity;BMP_temperature;BMP_pressure;BME280_temperature;BME280_humidity;BME280_pressure;Samples;Min_cycle;Max_cycle;Signal;HPM_P1;HPM_P2
2022/07/23 00:00:22;;;;;;;8.43;5.30;;;25.30;81.00;;;;;;6968862;28;20787;-81
2022/07/23 00:03:44;;;;;;;7.33;5.50;;;25.30;82.50;;;;;;6977480;28;20439;-82
2022/07/23 00:07:06;;;;;;;7.07;5.40;;;25.30;81.60;;;;;;6984903;28;20448;-82
2022/07/23 00:10:29;;;;;;;6.93;5.78;;;25.30;82.20;;;;;;6967714;28;20438;-81
2022/07/23 00:13:54;;;;;;;6.90;5.33;;;25.30;83.60;;;;;;6969493;28;20529;-81
2022/07/23 00:17:16;;;;;;;7.83;5.80;;;25.10;85.20;;;;;;6987033;28;20601;-81
2022/07/23 00:20:39;;;;;;;7.07;5.53;;;25.00;84.40;;;;;;6999020;28;20435;-81
2022/07/23 00:24:01;;;;;;;7.72;5.43;;;24.90;88.00;;;;;;6972945;28;20910;-81
2022/07/23 00:27:23;;;;;;;8.27;5.87;;;24.70;87.60;;;;;;6973255;28;20429;-82
2022/07/23 00:30:46;;;;;;;9.18;6.03;;;24.70;88.90;;;;;;6977804;28;20444;-81
2022/07/23 00:34:08;;;;;;;8.60;6.53;;;24.70;90.00;;;;;;6990404;28;20443;-80
2022/07/23 00:37:31;;;;;;;8.18;6.40;;;24.70;90.60;;;;;;7000334;28;20909;-80
2022/07/23 00:40:53;;;;;;;8.40;6.23;;;24.70;90.80;;;;;;7000691;28;20432;-80
2022/07/23 00:44:21;;;;;;;7.90;6.25;;;24.70;90.80;;;;;;6994547;28;20992;-81
2022/07/23 00:47:45;;;;;;;9.57;6.20;;;24.70;91.40;;;;;;6990787;28;20484;-79
2022/07/23 00:51:07;;;;;;;9.20;6.20;;;24.60;92.00;;;;;;7000144;28;20450;-80
2022/07/23 00:54:29;;;;;;;8.63;6.50;;;24.60;92.40;;;;;;6983746;28;20460;-81
2022/07/23 00:57:53;;;;;;;8.10;6.30;;;24.60;93.70;;;;;;6990414;28;20777;-81
2022/07/23 01:01:15;;;;;;;8.15;6.90;;;24.60;94.80;;;;;;6999385;28;20506;-81
2022/07/23 01:04:39;;;;;;;10.27;7.45;;;24.60;95.20;;;;;;6999801;28;20801;-81
2022/07/23 01:08:01;;;;;;;9.70;7.38;;;24.50;95.60;;;;;;6975866;28;20452;-82
2022/07/23 01:11:25;;;;;;;8.87;6.23;;;24.50;94.30;;;;;;7001950;28;20431;-82
2022/07/23 01:14:55;;;;;;;7.47;5.83;;;24.40;93.20;;;;;;6986200;28;20437;-81
2022/07/23 01:18:17;;;;;;;7.70;5.75;;;24.40;93.50;;;;;;6988570;28;20433;-84
2022/07/23 01:21:42;;;;;;;8.25;6.20;;;24.30;93.50;;;;;;6998402;28;20436;-82
2022/07/23 01:25:08;;;;;;;7.37;6.00;;;24.20;94.20;;;;;;6975988;28;20439;-83
2022/07/23 01:28:30;;;;;;;8.43;6.07;;;24.20;94.30;;;;;;6998901;28;20443;-82
2022/07/23 01:31:53;;;;;;;7.70;5.78;;;24.30;94.60;;;;;;6997697;28;20494;-82
2022/07/23 01:35:15;;;;;;;7.60;6.22;;;24.20;94.70;;;;;;6988591;28;20431;-80
2022/07/23 01:38:37;;;;;;;9.60;6.30;;;24.20;95.30;;;;;;6998996;28;20427;-80
2022/07/23 01:42:00;;;;;;;6.90;6.05;;;24.20;95.60;;;;;;6998898;28;20431;-80
2022/07/23 01:45:23;;;;;;;8.75;6.30;;;24.20;96.20;;;;;;6986692;28;20436;-81
2022/07/23 01:48:45;;;;;;;8.87;6.30;;;24.10;95.80;;;;;;6970929;28;20540;-80
2022/07/23 01:52:10;;;;;;;7.65;5.90;;;24.10;96.60;;;;;;6970394;28;20432;-80
2022/07/23 01:55:32;;;;;;;6.47;5.53;;;23.90;96.60;;;;;;6971517;28;20441;-82
2022/07/23 01:58:56;;;;;;;8.48;5.88;;;24.00;96.00;;;;;;6970696;28;20441;-85
2022/07/23 02:02:18;;;;;;;8.60;6.07;;;24.10;96.10;;;;;;6982208;28;20445;-82
2022/07/23 02:05:40;;;;;;;7.57;6.07;;;24.00;96.80;;;;;;6996974;28;20782;-83
2022/07/23 02:09:02;;;;;;;8.00;6.30;;;24.00;97.20;;;;;;6979159;28;20439;-84
2022/07/23 02:12:24;;;;;;;7.93;6.30;;;23.90;97.60;;;;;;6973783;28;20430;-82
2022/07/23 02:15:48;;;;;;;7.78;6.30;;;23.80;98.10;;;;;;6979115;28;20433;-83
2022/07/23 02:19:10;;;;;;;7.10;6.03;;;23.80;98.10;;;;;;6981863;28;20429;-82
2022/07/23 02:22:32;;;;;;;9.20;6.43;;;23.80;98.60;;;;;;6977818;28;20433;-82
2022/07/23 02:25:54;;;;;;;8.88;6.20;;;23.90;98.70;;;;;;6976749;28;20430;-83
2022/07/23 02:29:16;;;;;;;7.90;5.97;;;23.80;98.50;;;;;;6976228;28;20444;-82
2022/07/23 02:32:40;;;;;;;7.45;6.10;;;23.90;98.20;;;;;;6992658;28;20435;-82
2022/07/23 02:36:02;;;;;;;7.50;6.10;;;23.80;98.40;;;;;;6997311;28;20443;-82
2022/07/23 02:39:25;;;;;;;8.30;6.10;;;23.90;98.80;;;;;;6989409;28;20469;-82
2022/07/23 02:42:47;;;;;;;8.02;5.90;;;23.90;99.00;;;;;;6985087;28;20793;-82
2022/07/23 02:46:09;;;;;;;7.88;6.28;;;23.80;99.00;;;;;;6999067;28;20435;-83
2022/07/23 02:49:32;;;;;;;9.40;6.32;;;23.80;99.20;;;;;;7000891;28;20789;-83
2022/07/23 02:52:55;;;;;;;8.57;6.40;;;23.80;99.40;;;;;;6995597;28;20493;-82
2022/07/23 02:56:17;;;;;;;7.35;6.00;;;23.70;99.10;;;;;;6998781;28;20451;-84
2022/07/23 02:59:39;;;;;;;7.95;6.40;;;23.60;98.70;;;;;;6980564;28;20436;-81
2022/07/23 03:03:01;;;;;;;8.83;6.40;;;23.80;98.90;;;;;;6969088;28;20452;-82
2022/07/23 03:06:24;;;;;;;7.53;5.97;;;23.80;99.00;;;;;;6969000;28;20455;-82
2022/07/23 03:09:46;;;;;;;8.07;6.17;;;23.80;98.80;;;;;;6969271;28;20440;-84
2022/07/23 03:13:08;;;;;;;8.60;6.20;;;23.70;99.20;;;;;;6968984;28;20429;-82
2022/07/23 03:16:30;;;;;;;7.75;6.45;;;23.70;98.00;;;;;;6968708;28;20452;-84
2022/07/23 03:19:53;;;;;;;8.40;6.30;;;23.50;99.30;;;;;;6973443;28;20437;-84
2022/07/23 03:23:18;;;;;;;8.50;6.30;;;23.60;99.80;;;;;;6994959;28;20435;-83
2022/07/23 03:26:40;;;;;;;9.35;6.15;;;23.50;99.30;;;;;;6996538;28;20842;-82
2022/07/23 03:30:02;;;;;;;7.65;6.20;;;23.50;99.10;;;;;;6982739;28;20486;-83
2022/07/23 03:33:25;;;;;;;8.13;6.63;;;23.40;99.80;;;;;;6968619;28;20791;-82
2022/07/23 03:36:47;;;;;;;7.78;5.70;;;23.20;99.90;;;;;;6968343;28;20806;-81
2022/07/23 03:40:12;;;;;;;8.20;6.40;;;23.20;99.90;;;;;;6972966;28;20443;-81
2022/07/23 03:43:34;;;;;;;7.70;6.32;;;23.20;99.90;;;;;;6985465;28;20500;-82
2022/07/23 03:46:56;;;;;;;8.60;6.20;;;23.30;99.90;;;;;;6986545;28;20443;-82
2022/07/23 03:50:18;;;;;;;7.85;6.10;;;23.30;99.90;;;;;;6995341;28;20478;-83
2022/07/23 03:53:40;;;;;;;8.27;6.30;;;23.40;99.90;;;;;;6987327;28;20452;-82
2022/07/23 03:57:04;;;;;;;7.68;6.10;;;23.40;99.90;;;;;;6973659;28;20429;-81
2022/07/23 04:00:26;;;;;;;8.77;6.30;;;23.30;99.90;;;;;;6968615;28;20498;-81
2022/07/23 04:03:48;;;;;;;7.90;6.15;;;23.20;99.90;;;;;;6967943;28;20441;-82
2022/07/23 04:07:10;;;;;;;8.95;6.55;;;23.00;99.90;;;;;;6991712;28;20435;-81
2022/07/23 04:10:32;;;;;;;6.93;6.03;;;23.00;99.90;;;;;;6972821;28;20440;-81
2022/07/23 04:13:56;;;;;;;8.82;6.22;;;23.00;99.90;;;;;;6967980;28;20497;-81
2022/07/23 04:17:18;;;;;;;7.85;6.18;;;23.10;99.90;;;;;;6981233;28;20443;-84
2022/07/23 04:20:40;;;;;;;7.47;6.30;;;23.00;99.90;;;;;;6991056;28;20427;-82
2022/07/23 04:24:02;;;;;;;7.50;6.17;;;22.80;99.90;;;;;;6975393;28;21051;-83
2022/07/23 04:27:24;;;;;;;8.45;6.47;;;22.80;99.90;;;;;;6967431;28;20464;-81
2022/07/23 04:30:48;;;;;;;8.05;6.13;;;22.90;99.90;;;;;;6970460;28;20494;-83
2022/07/23 04:34:10;;;;;;;7.85;6.13;;;22.90;99.90;;;;;;6995215;28;20434;-85
2022/07/23 04:37:35;;;;;;;8.02;6.60;;;22.70;99.90;;;;;;6993642;28;20467;-79
2022/07/23 04:40:57;;;;;;;7.67;6.10;;;22.60;99.90;;;;;;6967305;28;20437;-80
2022/07/23 04:44:19;;;;;;;7.57;6.28;;;22.70;99.90;;;;;;6968743;28;20440;-78
2022/07/23 04:47:42;;;;;;;6.85;5.95;;;22.80;99.90;;;;;;6979101;28;20458;-78
2022/07/23 04:51:05;;;;;;;8.10;6.07;;;22.80;99.90;;;;;;6983959;28;20431;-76
2022/07/23 04:54:27;;;;;;;8.57;6.23;;;22.90;99.90;;;;;;6986860;28;20781;-76
2022/07/23 04:57:49;;;;;;;9.65;6.22;;;22.90;99.90;;;;;;6992529;28;20486;-78
2022/07/23 05:01:11;;;;;;;7.68;5.93;;;23.00;99.90;;;;;;6986110;28;20463;-79
2022/07/23 05:04:34;;;;;;;8.13;5.80;;;23.10;99.90;;;;;;6972164;28;20543;-77
2022/07/23 05:07:57;;;;;;;8.20;5.97;;;23.20;99.90;;;;;;6991635;28;20484;-79
2022/07/23 05:11:19;;;;;;;7.40;5.82;;;23.20;99.90;;;;;;6997917;28;20782;-78
2022/07/23 05:14:41;;;;;;;7.55;6.03;;;23.30;99.90;;;;;;6985469;28;20459;-77
2022/07/23 05:18:04;;;;;;;8.90;6.30;;;23.40;99.90;;;;;;6991176;28;20433;-78
2022/07/23 05:21:27;;;;;;;7.80;6.20;;;23.20;99.90;;;;;;6971658;28;20460;-78
2022/07/23 05:24:49;;;;;;;8.50;6.10;;;23.20;99.90;;;;;;6992429;28;20466;-79
2022/07/23 05:28:11;;;;;;;7.65;6.30;;;23.20;99.90;;;;;;6974619;28;20464;-81
2022/07/23 05:31:33;;;;;;;9.88;6.50;;;23.30;99.40;;;;;;6971554;28;20455;-79
2022/07/23 05:34:55;;;;;;;8.05;6.25;;;23.40;99.40;;;;;;6978773;28;20903;-79
2022/07/23 05:38:19;;;;;;;8.25;6.40;;;23.60;99.10;;;;;;6985895;28;20467;-77
2022/07/23 05:41:41;;;;;;;8.45;6.57;;;23.70;98.50;;;;;;6971964;28;20965;-78
2022/07/23 05:45:04;;;;;;;8.63;6.75;;;23.60;98.10;;;;;;6993131;28;20460;-79
2022/07/23 05:48:26;;;;;;;8.20;6.40;;;23.50;97.90;;;;;;6988503;28;20434;-77
2022/07/23 05:51:48;;;;;;;9.77;6.63;;;23.40;99.30;;;;;;6993949;28;20466;-80
2022/07/23 05:55:13;;;;;;;8.40;6.40;;;23.20;99.90;;;;;;6971195;28;20483;-78
2022/07/23 05:58:35;;;;;;;8.87;6.80;;;22.70;99.90;;;;;;6970915;28;20449;-78
2022/07/23 06:01:57;;;;;;;8.05;6.40;;;23.00;99.90;;;;;;6984316;28;20458;-79
2022/07/23 06:05:20;;;;;;;8.52;6.05;;;23.20;99.90;;;;;;6989341;28;20427;-81
2022/07/23 06:08:42;;;;;;;10.52;7.40;;;23.50;99.90;;;;;;6996188;28;20936;-79
2022/07/23 06:12:06;;;;;;;8.05;6.85;;;23.60;99.30;;;;;;6996125;28;20466;-80
2022/07/23 06:15:30;;;;;;;7.20;6.38;;;23.60;98.70;;;;;;6970945;28;20441;-80
2022/07/23 06:18:52;;;;;;;11.25;8.18;;;23.60;99.00;;;;;;6979879;28;20438;-77
2022/07/23 06:22:14;;;;;;;9.73;6.47;;;23.70;98.80;;;;;;6981342;28;20947;-79
2022/07/23 06:25:36;;;;;;;8.73;6.40;;;23.90;98.90;;;;;;6993217;28;20465;-79
2022/07/23 06:28:59;;;;;;;8.80;6.37;;;24.10;98.90;;;;;;6994902;28;20849;-81
2022/07/23 06:32:21;;;;;;;8.57;6.78;;;24.10;98.20;;;;;;6990803;28;20909;-81
2022/07/23 06:35:43;;;;;;;8.23;6.37;;;24.20;98.70;;;;;;6990196;28;20472;-79
2022/07/23 06:39:05;;;;;;;10.13;7.03;;;24.20;97.40;;;;;;6972935;28;20441;-83
2022/07/23 06:42:27;;;;;;;8.40;6.68;;;24.20;97.60;;;;;;6969298;28;20479;-80
2022/07/23 06:45:51;;;;;;;9.85;6.72;;;24.10;97.60;;;;;;6969840;28;20842;-81
2022/07/23 06:49:13;;;;;;;8.50;6.72;;;23.90;98.30;;;;;;6986910;28;20473;-80
2022/07/23 06:52:35;;;;;;;8.50;6.80;;;24.00;97.50;;;;;;6990945;28;20555;-80
2022/07/23 06:55:57;;;;;;;8.32;7.10;;;24.00;96.80;;;;;;6973430;28;175174;-80
2022/07/23 06:59:19;;;;;;;9.17;6.57;;;24.00;97.10;;;;;;6970609;28;20475;-79
2022/07/23 07:02:43;;;;;;;9.07;6.85;;;23.90;97.00;;;;;;6977807;28;20433;-80
2022/07/23 07:06:05;;;;;;;8.47;6.80;;;24.00;97.00;;;;;;6991880;28;20440;-78
2022/07/23 07:09:27;;;;;;;8.18;6.70;;;24.10;96.70;;;;;;6997371;28;20435;-79
2022/07/23 07:12:50;;;;;;;8.20;6.75;;;24.20;96.80;;;;;;7003611;28;20439;-78
2022/07/23 07:16:12;;;;;;;10.20;6.82;;;24.30;96.20;;;;;;7020527;28;20435;-77
2022/07/23 07:19:35;;;;;;;9.87;6.87;;;24.40;96.20;;;;;;7029878;28;20454;-80
2022/07/23 07:22:58;;;;;;;9.13;6.82;;;24.40;96.30;;;;;;7014428;28;20514;-78
2022/07/23 07:26:20;;;;;;;7.67;6.50;;;24.40;96.50;;;;;;6997254;28;20929;-78
2022/07/23 07:29:42;;;;;;;9.20;6.90;;;24.40;96.50;;;;;;6993009;28;20460;-78
2022/07/23 07:33:04;;;;;;;8.13;6.70;;;24.50;97.10;;;;;;6969364;28;20437;-79
2022/07/23 07:36:27;;;;;;;9.50;6.72;;;24.50;97.00;;;;;;6968620;28;20476;-79
2022/07/23 07:39:49;;;;;;;9.35;7.38;;;24.60;96.90;;;;;;6970055;28;20453;-78
2022/07/23 07:43:11;;;;;;;9.87;7.80;;;24.60;96.80;;;;;;6969607;28;20433;-78
2022/07/23 07:46:33;;;;;;;8.02;6.50;;;24.80;96.70;;;;;;6990540;28;20463;-78
2022/07/23 07:49:56;;;;;;;9.88;6.68;;;24.80;95.50;;;;;;6995058;28;20447;-78
2022/07/23 07:53:19;;;;;;;8.97;6.80;;;24.80;95.20;;;;;;6994562;28;20488;-77
2022/07/23 07:56:41;;;;;;;9.68;6.90;;;24.80;95.70;;;;;;6952738;28;20776;-75
2022/07/23 08:00:06;;;;;;;8.35;6.90;;;24.80;96.60;;;;;;6987503;28;20437;-80
2022/07/23 08:03:28;;;;;;;9.40;6.78;;;24.90;95.90;;;;;;6981595;28;20431;-76
2022/07/23 08:06:50;;;;;;;11.35;6.93;;;25.10;95.20;;;;;;6986632;28;20470;-77
2022/07/23 08:10:13;;;;;;;8.13;6.67;;;25.20;95.20;;;;;;6968867;28;20776;-76
2022/07/23 08:13:35;;;;;;;11.25;6.90;;;25.40;95.30;;;;;;6967551;28;20480;-79
2022/07/23 08:16:57;;;;;;;8.10;6.55;;;25.30;95.10;;;;;;6993600;28;20807;-77
2022/07/23 08:20:22;;;;;;;8.77;6.40;;;25.40;94.40;;;;;;6993036;28;20423;-76
2022/07/23 08:23:45;;;;;;;8.88;6.40;;;25.30;94.20;;;;;;6991665;28;20432;-75
2022/07/23 08:27:08;;;;;;;8.20;6.22;;;25.10;94.90;;;;;;6983104;28;20427;-76
2022/07/23 08:30:32;;;;;;;6.93;6.18;;;25.40;93.00;;;;;;6994062;28;20428;-82
2022/07/23 08:33:54;;;;;;;7.72;6.10;;;25.60;93.20;;;;;;6992324;28;20791;-77
2022/07/23 08:37:17;;;;;;;8.00;6.70;;;25.50;93.40;;;;;;6988233;28;21044;-77
2022/07/23 08:40:41;;;;;;;9.77;6.80;;;25.40;93.40;;;;;;7000837;28;20445;-78
2022/07/23 08:44:09;;;;;;;9.20;6.68;;;25.50;93.40;;;;;;7000270;28;20438;-77
2022/07/23 08:47:32;;;;;;;9.80;7.10;;;25.60;92.90;;;;;;7000240;28;20477;-79
2022/07/23 08:50:56;;;;;;;9.93;7.00;;;25.60;92.70;;;;;;7000248;28;20423;-78
2022/07/23 08:54:18;;;;;;;9.30;6.63;;;25.50;92.60;;;;;;6999906;28;20423;-78
2022/07/23 08:57:40;;;;;;;7.97;6.50;;;25.80;91.80;;;;;;6999817;28;20474;-77
2022/07/23 09:01:04;;;;;;;10.05;7.13;;;25.80;90.80;;;;;;7000118;28;20424;-76
2022/07/23 09:04:26;;;;;;;7.65;6.28;;;25.60;91.60;;;;;;6999898;28;20461;-79
2022/07/23 09:08:11;;;;;;;7.57;6.03;;;25.60;90.60;;;;;;6999971;28;20462;-78
2022/07/23 09:11:33;;;;;;;7.30;5.75;;;25.60;90.50;;;;;;6999675;28;20471;-78
2022/07/23 09:14:55;;;;;;;6.57;5.37;;;25.60;91.00;;;;;;6999454;28;20424;-77
2022/07/23 09:18:18;;;;;;;7.32;5.78;;;25.80;90.70;;;;;;6999089;28;20442;-78
2022/07/23 09:21:40;;;;;;;11.73;8.55;;;25.80;90.00;;;;;;6999289;28;20431;-79
2022/07/23 09:25:10;;;;;;;9.82;6.50;;;25.90;89.80;;;;;;6999933;28;20424;-78
2022/07/23 09:28:32;;;;;;;8.30;6.95;;;25.80;90.30;;;;;;6999662;28;20423;-78
2022/07/23 09:31:57;;;;;;;8.77;6.40;;;25.90;90.30;;;;;;6999140;28;20936;-79
2022/07/23 09:35:21;;;;;;;8.18;5.95;;;26.10;90.00;;;;;;6999524;28;20420;-76
2022/07/23 09:38:50;;;;;;;7.97;6.30;;;25.90;90.10;;;;;;6999096;28;20432;-77
2022/07/23 09:42:18;;;;;;;9.02;6.40;;;25.90;88.90;;;;;;6998961;28;20470;-77
2022/07/23 09:45:40;;;;;;;8.15;6.30;;;25.90;89.10;;;;;;6998723;28;20431;-77
2022/07/23 09:49:19;;;;;;;8.70;6.50;;;26.20;89.80;;;;;;6998756;28;20798;-76
2022/07/23 09:52:48;;;;;;;8.68;6.80;;;25.90;90.20;;;;;;6998631;28;20440;-79
2022/07/23 09:56:12;;;;;;;7.40;6.28;;;26.00;89.60;;;;;;6998609;28;20771;-79
2022/07/23 09:59:40;;;;;;;7.67;6.67;;;25.90;89.80;;;;;;6998685;28;20845;-79
2022/07/23 10:03:04;;;;;;;9.07;6.50;;;26.10;89.40;;;;;;6998368;28;20431;-78
2022/07/23 10:06:27;;;;;;;8.65;6.47;;;26.40;88.20;;;;;;6988459;28;20429;-76
2022/07/23 10:09:52;;;;;;;7.63;6.50;;;26.40;87.40;;;;;;6968445;28;20440;-78
2022/07/23 10:16:58;;;;;;;8.48;6.50;;;26.40;87.50;;;;;;6957938;28;20512;-77
2022/07/23 10:20:20;;;;;;;8.10;6.53;;;26.40;87.70;;;;;;6991609;28;20432;-78
2022/07/23 10:23:59;;;;;;;8.85;6.72;;;26.40;86.90;;;;;;6974786;28;20429;-78
2022/07/23 10:27:48;;;;;;;7.50;6.18;;;26.50;86.60;;;;;;6989175;28;20894;-78
2022/07/23 10:31:26;;;;;;;7.93;6.57;;;26.60;87.40;;;;;;6996196;28;20431;-78
2022/07/23 10:35:00;;;;;;;8.33;6.60;;;26.50;89.20;;;;;;6996952;28;20830;-78
2022/07/23 10:38:28;;;;;;;8.03;6.50;;;26.70;88.00;;;;;;6986261;28;20551;-79
2022/07/23 10:41:50;;;;;;;8.23;6.50;;;26.80;87.20;;;;;;6969118;28;20491;-77
2022/07/23 10:45:30;;;;;;;7.65;6.57;;;26.90;85.60;;;;;;6971175;28;20933;-79
2022/07/23 10:49:25;;;;;;;8.63;6.63;;;26.80;84.70;;;;;;6994830;28;20434;-77
2022/07/23 10:53:11;;;;;;;9.13;6.83;;;26.80;86.10;;;;;;6997028;28;20453;-79
2022/07/23 10:57:08;;;;;;;15.48;12.75;;;26.80;85.10;;;;;;6996672;28;20438;-79
2022/07/23 11:00:34;;;;;;;7.90;6.75;;;26.90;85.30;;;;;;6882653;28;20517;-81
2022/07/23 11:03:58;;;;;;;9.55;7.10;;;26.90;85.40;;;;;;6892572;28;20439;-81
2022/07/23 11:07:20;;;;;;;8.37;7.03;;;27.10;86.50;;;;;;6956296;28;20429;-79
2022/07/23 11:10:46;;;;;;;8.82;7.00;;;26.90;85.60;;;;;;6969174;28;20437;-81
2022/07/23 11:14:08;;;;;;;7.75;6.57;;;27.10;85.90;;;;;;6969099;28;20440;-82
2022/07/23 11:17:33;;;;;;;9.27;7.00;;;27.10;87.30;;;;;;6967690;28;20467;-85
2022/07/23 11:20:55;;;;;;;8.90;6.72;;;27.10;87.40;;;;;;6993334;28;20439;-79
2022/07/23 11:24:22;;;;;;;8.87;6.77;;;27.30;84.80;;;;;;6971469;28;20441;-77
2022/07/23 11:27:46;;;;;;;11.60;9.20;;;27.50;83.60;;;;;;6977736;28;20440;-76
2022/07/23 11:31:19;;;;;;;14.52;11.32;;;27.60;84.50;;;;;;6964496;28;20428;-78
2022/07/23 11:34:46;;;;;;;17.63;13.52;;;27.60;85.20;;;;;;6986629;28;20432;-78
2022/07/23 11:38:14;;;;;;;11.90;10.27;;;27.60;85.00;;;;;;6980280;28;20493;-78
2022/07/23 11:41:45;;;;;;;10.43;7.63;;;27.80;84.80;;;;;;6965707;28;20440;-78
2022/07/23 11:45:09;;;;;;;9.82;6.97;;;27.70;84.50;;;;;;6966632;28;20459;-78
2022/07/23 11:48:32;;;;;;;7.63;6.73;;;27.80;80.70;;;;;;6965096;28;20433;-76
2022/07/23 11:52:06;;;;;;;8.63;7.20;;;27.80;78.90;;;;;;6988801;28;20811;-77
2022/07/23 11:55:29;;;;;;;10.50;7.07;;;27.70;79.30;;;;;;6937030;28;20438;-79
2022/07/23 11:58:57;;;;;;;9.03;6.97;;;27.70;79.20;;;;;;6964912;28;20443;-78
2022/07/23 12:02:22;;;;;;;8.83;6.40;;;27.60;79.60;;;;;;6983152;28;21260;-78
2022/07/23 12:05:44;;;;;;;8.15;6.65;;;27.70;79.70;;;;;;6987647;28;20461;-79
2022/07/23 12:09:08;;;;;;;7.47;6.10;;;27.80;79.90;;;;;;6988472;28;20929;-78
2022/07/23 12:12:37;;;;;;;9.23;6.68;;;27.90;80.30;;;;;;6997649;28;20472;-76
2022/07/23 12:15:59;;;;;;;9.33;7.40;;;28.10;79.00;;;;;;6997245;28;20427;-77
2022/07/23 12:19:22;;;;;;;8.97;6.10;;;28.20;78.00;;;;;;6994995;28;20466;-80
2022/07/23 12:22:46;;;;;;;7.82;6.20;;;28.00;78.80;;;;;;6993998;28;20427;-80
2022/07/23 12:26:11;;;;;;;8.30;5.93;;;28.10;77.50;;;;;;6997279;28;20427;-81
2022/07/23 12:29:36;;;;;;;7.63;6.10;;;28.00;78.30;;;;;;6993361;28;20435;-79
2022/07/23 12:33:00;;;;;;;8.40;5.95;;;28.00;77.30;;;;;;6977551;28;20482;-79
2022/07/23 12:36:40;;;;;;;7.97;6.10;;;28.10;78.80;;;;;;6969384;28;20433;-80
2022/07/23 12:40:29;;;;;;;10.05;8.05;;;28.20;77.80;;;;;;6996882;28;20427;-78
2022/07/23 12:43:52;;;;;;;8.37;6.10;;;28.40;76.40;;;;;;6995561;28;20454;-79
2022/07/23 12:47:14;;;;;;;7.00;5.78;;;28.50;74.80;;;;;;6990979;28;20468;-78
2022/07/23 12:50:48;;;;;;;6.32;5.65;;;28.50;72.90;;;;;;6969485;28;20429;-78
2022/07/23 12:54:11;;;;;;;7.75;5.88;;;28.50;72.00;;;;;;6993518;28;20494;-78
2022/07/23 12:57:46;;;;;;;8.40;5.78;;;28.50;72.10;;;;;;6977881;28;20986;-77
2022/07/23 13:01:11;;;;;;;6.78;5.90;;;28.50;74.10;;;;;;6996890;28;20427;-79
2022/07/23 13:04:33;;;;;;;7.78;5.53;;;28.70;75.90;;;;;;6972331;28;20433;-79
2022/07/23 13:07:55;;;;;;;7.13;5.40;;;29.00;74.70;;;;;;6983289;28;20427;-79
2022/07/23 13:11:17;;;;;;;6.40;5.13;;;29.10;71.80;;;;;;6997949;28;20466;-79
2022/07/23 13:14:39;;;;;;;6.53;5.30;;;28.80;71.30;;;;;;6999415;28;20762;-78
2022/07/23 13:18:03;;;;;;;7.50;5.40;;;28.90;71.50;;;;;;6994772;28;20443;-80
2022/07/23 13:21:26;;;;;;;6.28;5.00;;;28.60;72.90;;;;;;6997536;28;20433;-79
2022/07/23 13:24:48;;;;;;;7.43;5.40;;;28.60;70.10;;;;;;6999741;28;20465;-78
2022/07/23 13:28:10;;;;;;;6.28;5.32;;;28.50;70.20;;;;;;6976659;28;20437;-78
2022/07/23 13:31:32;;;;;;;6.55;5.30;;;28.50;70.70;;;;;;6971825;28;20435;-79
2022/07/23 13:34:56;;;;;;;6.55;5.43;;;28.40;70.80;;;;;;6972997;28;20433;-78
2022/07/23 13:38:19;;;;;;;7.40;5.60;;;28.40;70.70;;;;;;6971918;28;20441;-78
2022/07/23 13:41:41;;;;;;;6.77;5.40;;;28.50;70.50;;;;;;6971340;28;20457;-79
2022/07/23 13:45:03;;;;;;;7.03;6.30;;;28.30;71.40;;;;;;6969878;28;20460;-78
2022/07/23 13:48:26;;;;;;;7.37;5.23;;;28.30;71.60;;;;;;6975017;28;20472;-78
2022/07/23 13:51:49;;;;;;;7.63;6.10;;;28.50;70.90;;;;;;6973742;28;20453;-78
2022/07/23 13:55:11;;;;;;;7.47;5.43;;;28.50;71.60;;;;;;6967955;28;20503;-78
2022/07/23 13:58:33;;;;;;;6.70;5.50;;;28.60;70.70;;;;;;6966336;28;20441;-78
2022/07/23 14:01:56;;;;;;;8.55;7.47;;;28.60;71.60;;;;;;6968821;28;20990;-79
2022/07/23 14:05:18;;;;;;;8.03;6.80;;;28.60;69.80;;;;;;6974725;28;20960;-79
2022/07/23 14:08:42;;;;;;;8.13;6.80;;;28.50;69.40;;;;;;6991674;28;20466;-80
2022/07/23 14:12:04;;;;;;;7.53;5.70;;;28.40;71.20;;;;;;6994706;28;20462;-79
2022/07/23 14:15:28;;;;;;;7.93;5.75;;;28.40;70.00;;;;;;6978966;28;20433;-79
2022/07/23 14:18:50;;;;;;;7.10;5.65;;;28.20;69.00;;;;;;6966044;28;20487;-78
2022/07/23 14:22:12;;;;;;;6.68;5.80;;;28.10;69.80;;;;;;6989197;28;20439;-79
2022/07/23 14:25:37;;;;;;;7.10;5.47;;;28.30;70.40;;;;;;6978097;28;20531;-79
2022/07/23 14:28:59;;;;;;;8.73;5.80;;;28.20;70.10;;;;;;6965381;28;20441;-79
2022/07/23 14:32:21;;;;;;;7.15;5.63;;;28.10;70.20;;;;;;6984152;28;20765;-78
2022/07/23 14:35:44;;;;;;;7.07;6.13;;;28.20;70.80;;;;;;6981181;28;20511;-77
2022/07/23 14:39:08;;;;;;;8.07;5.90;;;28.30;69.40;;;;;;6971051;28;20921;-79
2022/07/23 14:42:31;;;;;;;8.13;5.82;;;28.20;70.70;;;;;;6990569;28;20431;-76
2022/07/23 14:45:55;;;;;;;6.70;5.40;;;28.30;72.00;;;;;;6964860;28;20425;-79
2022/07/23 14:49:17;;;;;;;7.37;5.60;;;28.40;70.00;;;;;;6966019;28;20945;-79
2022/07/23 14:52:39;;;;;;;8.35;6.15;;;28.70;70.40;;;;;;6973396;28;20466;-78
2022/07/23 14:56:02;;;;;;;6.75;5.20;;;29.00;68.60;;;;;;6978830;28;20439;-78
2022/07/23 14:59:26;;;;;;;8.13;5.67;;;28.90;68.40;;;;;;6939329;28;20560;-78
2022/07/23 15:02:48;;;;;;;7.38;5.78;;;28.80;68.60;;;;;;6963820;28;20476;-78
2022/07/23 15:06:11;;;;;;;7.77;5.67;;;28.80;68.00;;;;;;6962752;28;20438;-79
2022/07/23 15:09:34;;;;;;;7.53;5.45;;;29.10;69.90;;;;;;6995637;28;20435;-80
2022/07/23 15:12:56;;;;;;;8.05;5.78;;;29.40;68.90;;;;;;6985188;28;20441;-80
2022/07/23 15:16:19;;;;;;;6.78;5.53;;;29.40;68.60;;;;;;6966415;28;20851;-78
2022/07/23 15:19:41;;;;;;;7.20;5.70;;;29.50;68.60;;;;;;6968976;28;20448;-77
2022/07/23 15:23:03;;;;;;;7.75;5.70;;;29.30;66.30;;;;;;6961074;28;20440;-80
2022/07/23 15:26:26;;;;;;;7.70;5.63;;;29.30;66.10;;;;;;6964061;28;20472;-77
2022/07/23 15:29:48;;;;;;;6.95;5.60;;;29.10;65.30;;;;;;6971285;28;20478;-79
2022/07/23 15:33:11;;;;;;;7.10;5.80;;;29.30;66.20;;;;;;6967100;28;20443;-79
2022/07/23 15:36:33;;;;;;;7.15;5.50;;;29.40;67.60;;;;;;6990714;28;20459;-80
2022/07/23 15:39:55;;;;;;;6.75;5.65;;;29.50;67.30;;;;;;6963953;28;20487;-78
2022/07/23 15:43:17;;;;;;;7.60;5.88;;;29.70;67.60;;;;;;6964706;28;20487;-78
2022/07/23 15:46:39;;;;;;;7.30;5.72;;;29.90;68.00;;;;;;6964957;28;20768;-77
2022/07/23 15:50:03;;;;;;;7.22;5.57;;;30.10;67.10;;;;;;6962659;28;20471;-78
2022/07/23 15:53:26;;;;;;;6.88;5.45;;;30.20;64.90;;;;;;6978799;28;20443;-79
2022/07/23 15:56:48;;;;;;;14.98;11.63;;;30.20;66.20;;;;;;6991855;28;20497;-77
2022/07/23 16:00:12;;;;;;;11.75;9.30;;;30.20;66.00;;;;;;6985975;28;20433;-80
2022/07/23 16:03:35;;;;;;;9.65;7.95;;;30.50;65.60;;;;;;6969113;28;20478;-79
2022/07/23 16:06:59;;;;;;;7.32;5.93;;;30.50;64.30;;;;;;6973488;28;20439;-77
2022/07/23 16:10:22;;;;;;;7.47;5.57;;;30.40;65.70;;;;;;6983382;28;20519;-77
2022/07/23 16:13:44;;;;;;;7.03;5.55;;;30.50;63.50;;;;;;6962709;28;20433;-78
2022/07/23 16:17:07;;;;;;;8.93;5.85;;;30.20;64.80;;;;;;6964693;28;20843;-79
2022/07/23 16:20:29;;;;;;;7.30;5.70;;;30.20;66.30;;;;;;6983658;28;20448;-81
2022/07/23 16:23:53;;;;;;;7.10;5.68;;;29.90;65.90;;;;;;6966248;28;20460;-80
2022/07/23 16:27:15;;;;;;;9.30;5.80;;;29.80;65.20;;;;;;6964672;28;20783;-77
2022/07/23 16:30:39;;;;;;;7.35;5.75;;;29.80;65.60;;;;;;6972465;28;20441;-79
2022/07/23 16:34:01;;;;;;;6.68;5.70;;;29.70;65.80;;;;;;6989064;28;20518;-78
2022/07/23 16:37:23;;;;;;;8.35;6.10;;;29.40;65.80;;;;;;6991703;28;20983;-79
2022/07/23 16:40:47;;;;;;;6.40;5.70;;;29.40;65.80;;;;;;6987403;28;20452;-79
2022/07/23 16:44:09;;;;;;;7.18;5.60;;;29.30;65.40;;;;;;6988603;28;20576;-81
2022/07/23 16:47:31;;;;;;;7.25;5.70;;;29.30;65.60;;;;;;6982905;28;21257;-82
2022/07/23 16:50:53;;;;;;;7.90;6.28;;;29.20;66.30;;;;;;6978707;28;20428;-78
2022/07/23 16:54:16;;;;;;;6.88;5.78;;;29.30;66.30;;;;;;6991473;28;20992;-78
2022/07/23 16:57:40;;;;;;;7.55;5.90;;;29.30;65.70;;;;;;6977331;28;20913;-77
2022/07/23 17:01:02;;;;;;;7.63;5.80;;;29.40;66.70;;;;;;6982724;28;20952;-77
2022/07/23 17:04:24;;;;;;;8.02;6.28;;;29.40;68.80;;;;;;6991704;28;20427;-76
2022/07/23 17:07:46;;;;;;;7.05;5.90;;;29.30;71.20;;;;;;6986712;28;20423;-77
2022/07/23 17:11:08;;;;;;;8.23;6.20;;;29.10;72.70;;;;;;6978671;28;20441;-77
2022/07/23 17:14:32;;;;;;;8.77;6.13;;;29.20;73.60;;;;;;6973386;28;20425;-77
2022/07/23 17:17:54;;;;;;;7.30;5.78;;;29.20;73.70;;;;;;6974477;28;20452;-76
2022/07/23 17:21:16;;;;;;;7.47;6.18;;;29.20;73.70;;;;;;6971986;28;20831;-77
2022/07/23 17:24:38;;;;;;;8.23;6.05;;;29.20;74.40;;;;;;6971450;28;20429;-78
2022/07/23 17:28:01;;;;;;;8.75;6.40;;;29.10;78.50;;;;;;6970932;28;20467;-78
2022/07/23 17:31:25;;;;;;;9.23;6.00;;;29.20;76.00;;;;;;6984180;28;20429;-76
2022/07/23 17:34:47;;;;;;;8.13;6.40;;;29.30;72.00;;;;;;6971169;28;20826;-76
2022/07/23 17:38:11;;;;;;;8.45;6.40;;;29.50;77.10;;;;;;6970994;28;20972;-79
2022/07/23 17:41:34;;;;;;;7.75;6.00;;;29.50;77.20;;;;;;6971288;28;20439;-80